createdAt,value
2018-07-28T00:01:55.755Z,5.87
2018-07-28T00:04:22.924Z,5.23
2018-07-28T00:06:50.121Z,4.70
2018-07-28T00:09:17.349Z,4.97
2018-07-28T00:11:45.186Z,6.58
2018-07-28T00:14:12.372Z,5.40
2018-07-28T00:16:39.572Z,5.08
2018-07-28T00:19:07.076Z,5.03
2018-07-28T00:21:34.322Z,5.22
2018-07-28T00:24:01.525Z,5.03
2018-07-28T00:26:29.033Z,5.75
2018-07-28T00:28:56.193Z,5.12
2018-07-28T00:31:27.477Z,5.42
2018-07-28T00:33:55.001Z,6.12
2018-07-28T00:36:22.174Z,5.97
2018-07-28T00:38:49.340Z,5.75
2018-07-28T00:41:16.797Z,5.70
2018-07-28T00:43:43.945Z,5.58
2018-07-28T00:46:11.118Z,6.08
2018-07-28T00:48:40.342Z,5.72
2018-07-28T00:51:09.605Z,5.33
2018-07-28T00:53:36.770Z,6.05
2018-07-28T00:56:04.320Z,5.75
2018-07-28T00:58:31.521Z,6.08
2018-07-28T01:00:58.706Z,6.20
2018-07-28T01:03:25.902Z,5.73
2018-07-28T01:05:53.163Z,6.10
2018-07-28T01:08:20.357Z,6.20
2018-07-28T01:10:47.573Z,5.77
2018-07-28T01:13:14.820Z,6.00
2018-07-28T01:15:42.377Z,6.35
2018-07-28T01:18:09.578Z,6.30
2018-07-28T01:22:06.677Z,6.10
2018-07-28T01:24:33.869Z,5.78
2018-07-28T01:27:01.241Z,6.15
2018-07-28T01:29:28.422Z,6.33
2018-07-28T01:31:55.625Z,6.70
2018-07-28T01:34:22.832Z,6.35
2018-07-28T01:38:37.128Z,6.17
2018-07-28T01:41:04.299Z,5.60
2018-07-28T01:43:31.532Z,6.07
2018-07-28T01:45:59.109Z,5.97
2018-07-28T01:48:26.369Z,5.95
2018-07-28T01:50:53.616Z,6.70
2018-07-28T01:55:54.141Z,6.58
2018-07-28T01:58:21.325Z,5.70
2018-07-28T02:00:48.483Z,6.23
2018-07-28T02:03:15.662Z,5.93
2018-07-28T02:05:48.881Z,6.45
2018-07-28T02:08:16.085Z,6.00
2018-07-28T02:10:43.665Z,5.83
2018-07-28T02:13:10.904Z,6.13
2018-07-28T02:15:38.089Z,6.10
2018-07-28T02:18:05.358Z,5.58
2018-07-28T02:20:32.554Z,6.03
2018-07-28T02:23:02.100Z,6.35
2018-07-28T02:25:29.272Z,5.53
2018-07-28T02:27:56.456Z,5.97
2018-07-28T02:30:23.905Z,6.17
2018-07-28T02:32:51.145Z,6.60
2018-07-28T02:35:18.378Z,5.70
2018-07-28T02:37:45.837Z,5.80
2018-07-28T02:40:13.093Z,5.83
2018-07-28T02:42:40.277Z,5.87
2018-07-28T02:45:11.759Z,5.87
2018-07-28T02:47:38.941Z,5.70
2018-07-28T02:50:06.505Z,5.83
2018-07-28T02:52:33.994Z,5.80
2018-07-28T02:55:01.185Z,5.95
2018-07-28T02:57:28.361Z,6.10
2018-07-28T02:59:56.021Z,6.22
2018-07-28T03:02:23.181Z,5.65
2018-07-28T03:04:50.396Z,5.95
2018-07-28T03:07:17.945Z,5.87
2018-07-28T03:09:45.133Z,6.10
2018-07-28T03:12:12.380Z,5.70
2018-07-28T03:14:39.617Z,5.80
2018-07-28T03:17:06.788Z,5.53
2018-07-28T03:19:33.954Z,6.75
2018-07-28T03:22:05.177Z,6.30
2018-07-28T03:24:32.381Z,6.95
2018-07-28T03:26:59.558Z,6.45
2018-07-28T03:29:26.739Z,6.10
2018-07-28T03:31:53.949Z,6.33
2018-07-28T03:34:21.171Z,6.63
2018-07-28T03:36:48.725Z,7.23
2018-07-28T03:39:15.956Z,6.50
2018-07-28T03:41:43.178Z,6.83
2018-07-28T03:44:10.370Z,6.70
2018-07-28T03:46:37.561Z,6.70
2018-07-28T03:49:05.028Z,5.78
2018-07-28T03:51:34.243Z,6.42
2018-07-28T03:54:01.447Z,6.17
2018-07-28T03:56:28.679Z,6.78
2018-07-28T03:58:55.876Z,6.17
2018-07-28T04:01:23.094Z,6.25
2018-07-28T04:03:50.320Z,6.10
2018-07-28T04:06:17.589Z,5.87
2018-07-28T04:08:44.830Z,6.40
2018-07-28T04:11:12.484Z,5.62
2018-07-28T05:32:08.789Z,6.58
2018-07-28T05:34:35.966Z,7.17
2018-07-28T05:37:03.173Z,5.97
2018-07-28T05:39:30.337Z,6.97
2018-07-28T05:41:57.502Z,5.90
2018-07-28T05:44:24.635Z,6.12
2018-07-28T05:46:52.169Z,6.53
2018-07-28T05:49:19.410Z,6.40
2018-07-28T05:51:46.569Z,5.58
2018-07-28T05:54:13.749Z,6.62
2018-07-28T05:56:40.933Z,6.30
2018-07-28T05:59:08.121Z,7.28
2018-07-28T06:01:35.603Z,5.90
2018-07-28T06:04:02.731Z,5.35
2018-07-28T06:06:29.889Z,5.72
2018-07-28T06:08:57.032Z,5.17
2018-07-28T06:11:24.201Z,5.93
2018-07-28T06:13:51.339Z,5.33
2018-07-28T06:16:18.845Z,5.10
2018-07-28T06:18:45.989Z,5.13
2018-07-28T06:21:13.129Z,4.78
2018-07-28T06:23:40.274Z,6.63
2018-07-28T06:26:07.440Z,5.17
2018-07-28T06:28:34.576Z,5.23
2018-07-28T06:31:02.009Z,4.78
2018-07-28T06:33:29.137Z,5.23
2018-07-28T06:35:56.328Z,4.77
2018-07-28T06:38:23.756Z,5.13
2018-07-28T06:40:50.909Z,5.17
2018-07-28T06:43:18.053Z,5.87
2018-07-28T06:45:45.199Z,4.93
2018-07-28T06:48:12.685Z,5.23
2018-07-28T06:50:39.828Z,6.20
2018-07-28T06:53:06.968Z,4.37
2018-07-28T06:55:34.325Z,6.13
2018-07-28T06:58:01.470Z,4.80
2018-07-28T07:00:28.617Z,6.50
2018-07-28T07:02:56.125Z,5.73
2018-07-28T07:05:23.280Z,6.10
2018-07-28T07:07:50.415Z,5.30
2018-07-28T07:10:17.549Z,6.87
2018-07-28T07:12:44.764Z,5.13
2018-07-28T07:15:11.884Z,6.83
2018-07-28T07:17:39.368Z,4.92
2018-07-28T07:20:06.789Z,6.63
2018-07-28T07:22:34.257Z,6.47
2018-07-28T07:25:01.573Z,5.80
2018-07-28T07:27:28.715Z,5.83
2018-07-28T07:29:55.857Z,4.70
2018-07-28T07:32:27.212Z,6.37
2018-07-28T07:34:54.373Z,5.43
2018-07-28T07:37:21.501Z,5.63
2018-07-28T07:39:48.657Z,4.77
2018-07-28T07:42:16.409Z,5.23
2018-07-28T07:44:43.621Z,5.73
2018-07-28T07:47:10.786Z,7.40
2018-07-28T07:49:37.909Z,4.73
2018-07-28T07:52:05.657Z,6.13
2018-07-28T07:54:32.813Z,5.97
2018-07-28T07:56:59.957Z,5.67
2018-07-28T07:59:27.162Z,5.47
2018-07-28T08:01:54.613Z,4.13
2018-07-28T08:04:21.768Z,4.83
2018-07-28T08:06:48.898Z,4.50
2018-07-28T08:09:16.372Z,4.37
2018-07-28T08:11:43.565Z,4.43
2018-07-28T08:14:10.701Z,4.30
2018-07-28T08:16:37.865Z,4.03
2018-07-28T08:19:05.009Z,3.37
2018-07-28T08:21:32.173Z,4.60
2018-07-28T08:23:59.621Z,3.87
2018-07-28T08:26:26.831Z,4.83
2018-07-28T08:28:53.941Z,4.40
2018-07-28T08:31:21.505Z,6.03
2018-07-28T08:33:48.708Z,5.23
2018-07-28T08:36:15.842Z,6.10
2018-07-28T08:38:43.380Z,5.40
2018-07-28T08:41:10.510Z,4.90
2018-07-28T08:43:37.653Z,6.50
2018-07-28T08:46:05.113Z,5.50
2018-07-28T08:48:32.265Z,6.67
2018-07-28T08:50:59.443Z,5.17
2018-07-28T08:53:26.929Z,7.67
2018-07-28T08:55:54.058Z,5.70
2018-07-28T08:58:21.185Z,8.80
2018-07-28T09:00:48.379Z,6.17
2018-07-28T09:03:15.507Z,8.70
2018-07-28T09:05:42.661Z,6.50
2018-07-28T09:08:10.265Z,7.90
2018-07-28T09:10:37.419Z,6.67
2018-07-28T09:13:04.537Z,8.30
2018-07-28T09:15:31.726Z,6.90
2018-07-28T09:17:58.913Z,7.20
2018-07-28T09:20:26.007Z,5.93
2018-07-28T09:22:53.149Z,7.53
2018-07-28T09:25:20.341Z,5.90
2018-07-28T09:27:47.473Z,6.35
2018-07-28T09:30:14.972Z,5.73
2018-07-28T09:32:42.137Z,7.17
2018-07-28T09:35:09.269Z,6.03
2018-07-28T09:37:38.515Z,6.22
2018-07-28T09:40:05.624Z,4.60
2018-07-28T09:42:34.864Z,6.47
2018-07-28T09:45:02.022Z,5.73
2018-07-28T09:47:29.153Z,5.25
2018-07-28T09:50:00.709Z,5.30
2018-07-28T09:52:27.861Z,6.13
2018-07-28T09:54:55.188Z,4.87
2018-07-28T09:57:24.387Z,6.93
2018-07-28T09:59:51.560Z,5.43
2018-07-28T10:02:19.061Z,6.27
2018-07-28T10:04:46.201Z,4.63
2018-07-28T10:07:13.357Z,6.27
2018-07-28T10:09:40.911Z,4.33
2018-07-28T10:12:08.159Z,4.83
2018-07-28T10:14:35.363Z,5.33
2018-07-28T10:17:06.810Z,4.20
2018-07-28T10:19:34.093Z,4.33
2018-07-28T10:22:06.854Z,3.97
2018-07-28T10:24:40.368Z,5.77
2018-07-28T10:27:08.171Z,4.37
2018-07-28T10:29:35.333Z,5.67
2018-07-28T10:32:02.541Z,4.50
2018-07-28T10:34:29.681Z,4.12
2018-07-28T10:36:56.816Z,4.95
2018-07-28T10:39:23.956Z,4.53
2018-07-28T10:41:51.109Z,4.92
2018-07-28T10:44:18.253Z,4.62
2018-07-28T10:46:45.410Z,5.78
2018-07-28T10:49:12.612Z,5.33
2018-07-28T10:51:39.747Z,4.55
2018-07-28T10:54:06.869Z,5.33
2018-07-28T10:56:34.041Z,4.28
2018-07-28T10:59:01.176Z,5.30
2018-07-28T11:01:28.380Z,5.00
2018-07-28T11:03:55.508Z,6.42
2018-07-28T11:06:22.639Z,5.00
2018-07-28T11:08:50.152Z,5.67
2018-07-28T11:11:17.282Z,5.67
2018-07-28T11:13:44.414Z,6.30
2018-07-28T11:16:11.605Z,7.90
2018-07-28T11:18:38.730Z,5.60
2018-07-28T11:21:05.923Z,7.27
2018-07-28T11:23:52.582Z,6.08
2018-07-28T11:26:19.798Z,6.35
2018-07-28T11:28:46.919Z,5.28
2018-07-28T11:31:25.841Z,5.20
2018-07-28T11:34:04.677Z,4.78
2018-07-28T11:37:44.750Z,6.12
2018-07-28T11:41:17.621Z,4.37
2018-07-28T11:43:50.544Z,3.20
2018-07-28T11:46:17.673Z,3.70
2018-07-28T11:48:46.421Z,3.80
2018-07-28T11:51:13.878Z,4.10
2018-07-28T11:53:41.212Z,2.50
2018-07-28T11:56:08.346Z,3.87
2018-07-28T11:58:35.706Z,2.70
2018-07-28T12:01:03.359Z,3.30
2018-07-28T12:03:30.617Z,2.87
2018-07-28T12:06:02.791Z,2.40
2018-07-28T12:08:30.713Z,2.20
2018-07-28T12:10:57.837Z,2.90
2018-07-28T12:13:24.981Z,2.90
2018-07-28T12:15:52.106Z,1.70
2018-07-28T12:18:19.255Z,2.67
2018-07-28T12:20:50.777Z,2.70
2018-07-28T12:23:17.905Z,2.43
2018-07-28T12:25:45.027Z,1.97
2018-07-28T12:28:12.165Z,2.67
2018-07-28T12:30:39.313Z,2.57
2018-07-28T12:33:08.697Z,2.37
2018-07-28T12:35:35.865Z,2.87
2018-07-28T12:38:02.993Z,1.97
2018-07-28T12:40:30.130Z,3.20
2018-07-28T12:42:57.281Z,2.97
2018-07-28T12:45:24.886Z,2.47
2018-07-28T12:47:52.014Z,3.15
2018-07-28T12:50:21.265Z,4.22
2018-07-28T12:52:48.804Z,3.13
2018-07-28T12:55:15.991Z,3.00
2018-07-28T12:57:43.084Z,2.93
2018-07-28T13:00:10.241Z,2.63
2018-07-28T13:02:37.405Z,3.53
2018-07-28T13:05:05.613Z,3.20
2018-07-28T13:07:32.753Z,3.10
2018-07-28T13:09:59.889Z,3.50
2018-07-28T13:12:27.081Z,3.40
2018-07-28T13:14:54.533Z,2.98
2018-07-28T13:17:21.677Z,4.00
2018-07-28T13:19:48.805Z,3.47
2018-07-28T13:22:15.995Z,4.03
2018-07-28T13:24:47.153Z,2.92
2018-07-28T13:27:14.428Z,2.70
2018-07-28T13:29:41.682Z,2.67
2018-07-28T13:32:08.829Z,2.25
2018-07-28T13:34:35.966Z,2.60
2018-07-28T13:37:05.101Z,2.57
2018-07-28T13:39:32.233Z,2.67
2018-07-28T13:41:59.655Z,2.20
2018-07-28T13:44:26.846Z,2.30
2018-07-28T13:46:53.981Z,2.40
2018-07-28T13:49:21.116Z,2.58
2018-07-28T13:51:48.307Z,2.77
2018-07-28T13:54:17.538Z,2.00
2018-07-28T13:56:44.694Z,3.20
2018-07-28T13:59:11.895Z,3.27
2018-07-28T14:01:38.989Z,3.83
2018-07-28T14:04:06.113Z,2.57
2018-07-28T14:06:33.269Z,2.70
2018-07-28T14:09:00.557Z,1.97
2018-07-28T14:11:27.698Z,4.13
2018-07-28T14:13:56.944Z,3.10
2018-07-28T14:16:24.097Z,3.03
2018-07-28T14:18:51.359Z,2.07
2018-07-28T14:21:18.477Z,2.17
2018-07-28T14:23:45.784Z,4.13
2018-07-28T14:26:12.981Z,2.20
2018-07-28T14:28:40.265Z,2.80
2018-07-28T14:31:13.450Z,2.37
2018-07-28T14:36:22.597Z,2.87
2018-07-28T14:38:49.741Z,2.70
2018-07-28T14:41:16.917Z,2.22
2018-07-28T14:43:44.126Z,3.52
2018-07-28T14:46:11.316Z,2.40
2018-07-28T14:48:38.459Z,2.30
2018-07-28T14:51:06.248Z,2.23
2018-07-28T14:53:33.405Z,2.20
2018-07-28T14:56:00.557Z,2.23
2018-07-28T14:58:27.778Z,2.93
2018-07-28T15:00:55.373Z,3.03
2018-07-28T15:03:22.533Z,2.13
2018-07-28T15:05:49.665Z,3.10
2018-07-28T15:08:16.806Z,2.57
2018-07-28T15:10:44.008Z,3.23
2018-07-28T15:13:11.196Z,2.17
2018-07-28T15:15:38.653Z,2.80
2018-07-28T15:18:05.828Z,2.43
2018-07-28T15:20:33.005Z,2.50
2018-07-28T15:23:00.137Z,2.53
2018-07-28T15:25:27.328Z,3.12
2018-07-28T15:27:54.471Z,2.80
2018-07-28T15:30:21.642Z,3.37
2018-07-28T15:32:49.221Z,1.92
2018-07-28T15:35:16.360Z,2.10
2018-07-28T15:37:43.485Z,2.03
2018-07-28T15:40:10.679Z,1.60
2018-07-28T15:42:37.837Z,1.87
2018-07-28T15:45:04.969Z,1.80
2018-07-28T15:47:32.097Z,2.23
2018-07-28T15:49:59.299Z,1.40
2018-07-28T15:52:26.425Z,1.73
2018-07-28T15:54:53.620Z,2.03
2018-07-28T15:57:20.758Z,1.95
2018-07-28T15:59:47.898Z,2.20
2018-07-28T16:02:15.033Z,1.45
2018-07-28T16:04:42.236Z,1.90
2018-07-28T16:07:09.580Z,2.20
2018-07-28T16:09:37.061Z,2.12
2018-07-28T16:12:04.318Z,1.90
2018-07-28T16:14:31.461Z,2.00
2018-07-28T16:16:58.605Z,1.22
2018-07-28T16:19:26.098Z,2.33
2018-07-28T16:21:53.249Z,1.80
2018-07-28T16:24:20.457Z,1.77
2018-07-28T16:26:47.980Z,2.05
2018-07-28T16:29:15.130Z,2.00
2018-07-28T16:31:42.282Z,2.27
2018-07-28T16:34:09.421Z,1.55
2018-07-28T16:36:36.901Z,2.37
2018-07-28T16:39:06.408Z,1.32
2018-07-28T16:41:33.537Z,1.83
2018-07-28T16:44:00.678Z,1.40
2018-07-28T16:46:27.861Z,1.92
2018-07-28T16:48:55.242Z,2.12
2018-07-28T16:51:22.393Z,1.30
2018-07-28T16:53:49.517Z,2.25
2018-07-28T16:56:18.541Z,2.05
2018-07-28T16:58:45.681Z,1.98
2018-07-28T17:01:12.813Z,1.83
2018-07-28T17:03:41.749Z,2.33
2018-07-28T17:06:08.881Z,2.42
2018-07-28T17:08:36.029Z,1.97
2018-07-28T17:11:03.179Z,1.45
2018-07-28T17:13:30.346Z,1.97
2018-07-28T17:16:03.557Z,1.90
2018-07-28T17:18:30.719Z,2.37
2018-07-28T17:20:58.178Z,2.00
2018-07-28T17:23:25.319Z,2.00
2018-07-28T17:25:52.470Z,1.95
2018-07-28T17:28:19.958Z,1.80
2018-07-28T17:30:47.111Z,1.77
2018-07-28T17:33:14.253Z,2.50
2018-07-28T17:35:41.419Z,2.27
2018-07-28T17:38:08.898Z,2.60
2018-07-28T17:40:36.064Z,2.10
2018-07-28T17:43:03.215Z,1.83
2018-07-28T17:45:30.357Z,1.87
2018-07-28T17:47:57.481Z,1.70
2018-07-28T17:50:24.621Z,2.22
2018-07-28T17:52:51.832Z,1.85
2018-07-28T17:55:18.986Z,2.20
2018-07-28T17:57:46.129Z,1.32
2018-07-28T18:00:13.281Z,2.17
2018-07-28T18:02:40.745Z,2.30
2018-07-28T18:05:07.908Z,1.90
2018-07-28T18:07:35.244Z,2.20
2018-07-28T18:10:02.371Z,1.85
2018-07-28T18:12:29.544Z,1.60
2018-07-28T18:14:56.680Z,1.32
2018-07-28T18:17:23.874Z,2.30
2018-07-28T18:19:51.013Z,2.77
2018-07-28T18:22:18.167Z,1.55
2018-07-28T18:24:45.662Z,1.67
2018-07-28T18:27:12.847Z,1.10
2018-07-28T18:29:39.941Z,1.30
2018-07-28T18:32:07.069Z,1.43
2018-07-28T18:34:34.258Z,1.87
2018-07-28T18:37:01.386Z,1.80
2018-07-28T18:39:28.577Z,1.20
2018-07-28T18:41:55.697Z,2.20
2018-07-28T18:44:22.891Z,1.50
2018-07-28T18:46:50.014Z,1.73
2018-07-28T18:49:17.213Z,2.70
2018-07-28T18:51:44.673Z,1.77
2018-07-28T18:54:11.808Z,1.20
2018-07-28T18:56:38.997Z,1.70
2018-07-28T18:59:06.309Z,1.50
2018-07-28T19:01:33.809Z,1.80
2018-07-28T19:04:00.941Z,2.20
2018-07-28T19:06:28.081Z,1.67
2018-07-28T19:09:00.981Z,1.87
2018-07-28T19:11:28.110Z,1.70
2018-07-28T19:14:01.149Z,2.13
2018-07-28T19:16:28.277Z,2.70
2018-07-28T19:19:05.421Z,1.70
2018-07-28T19:21:32.605Z,1.95
2018-07-28T19:24:00.506Z,2.50
2018-07-28T19:26:28.493Z,2.47
2018-07-28T19:29:01.427Z,2.62
2018-07-28T19:31:28.721Z,2.33
2018-07-28T19:33:55.905Z,2.45
2018-07-28T19:36:28.801Z,1.75
2018-07-28T19:38:55.945Z,2.25
2018-07-28T19:41:23.111Z,2.02
2018-07-28T19:43:50.269Z,2.30
2018-07-28T19:46:17.467Z,1.85
2018-07-28T19:50:14.226Z,1.87
2018-07-28T19:52:41.386Z,2.45
2018-07-28T19:55:08.567Z,1.77
2018-07-28T19:57:35.773Z,1.63
2018-07-28T20:00:03.456Z,1.80
2018-07-28T20:02:30.861Z,1.50
2018-07-28T20:04:58.045Z,2.23
2018-07-28T20:07:25.216Z,2.43
2018-07-28T20:09:52.774Z,1.67
2018-07-28T20:12:19.929Z,2.70
2018-07-28T20:14:47.085Z,2.30
2018-07-28T20:17:16.322Z,2.80
2018-07-28T20:19:43.529Z,2.10
2018-07-28T20:22:10.608Z,1.93
2018-07-28T20:24:37.741Z,2.03
2018-07-28T20:27:04.984Z,2.47
2018-07-28T20:29:32.240Z,1.90
2018-07-28T20:31:59.564Z,2.27
2018-07-28T20:34:26.709Z,2.22
2018-07-28T20:36:53.839Z,1.85
2018-07-28T20:39:20.974Z,2.40
2018-07-28T20:41:48.109Z,2.12
2018-07-28T20:44:15.296Z,2.10
2018-07-28T20:46:42.453Z,1.77
2018-07-28T20:49:11.207Z,1.80
2018-07-28T20:51:38.285Z,1.50
2018-07-28T20:54:05.732Z,1.43
2018-07-28T20:56:32.920Z,1.50
2018-07-28T20:59:00.065Z,1.87
2018-07-28T21:01:27.205Z,2.00
2018-07-28T21:03:54.365Z,1.90
2018-07-28T21:06:21.505Z,1.85
2018-07-28T21:08:48.708Z,2.33
2018-07-28T21:11:15.857Z,1.87
2018-07-28T21:13:42.998Z,1.87
2018-07-28T21:16:10.137Z,2.27
2018-07-28T21:18:37.433Z,2.70
2018-07-28T21:21:04.602Z,4.30
2018-07-28T21:23:31.757Z,3.30
2018-07-28T21:25:58.945Z,3.33
2018-07-28T21:28:26.155Z,1.67
2018-07-28T21:30:53.313Z,1.40
2018-07-28T21:33:20.672Z,2.77
2018-07-28T21:35:47.827Z,2.75
2018-07-28T21:38:14.978Z,1.65
2018-07-28T21:40:42.389Z,1.67
2018-07-28T21:43:09.572Z,1.63
2018-07-28T21:45:36.713Z,1.40
2018-07-28T21:48:06.468Z,1.50
2018-07-28T21:50:33.605Z,1.63
2018-07-28T21:53:00.741Z,1.50
2018-07-28T21:55:28.241Z,1.13
2018-07-28T21:57:55.397Z,1.63
2018-07-28T22:00:22.534Z,1.90
2018-07-28T22:02:51.489Z,1.40
2018-07-28T22:05:19.479Z,1.17
2018-07-28T22:07:47.189Z,1.50
2018-07-28T22:10:14.655Z,1.50
2018-07-28T22:12:41.789Z,1.80
2018-07-28T22:15:08.919Z,1.10
2018-07-28T22:17:36.145Z,1.80
2018-07-28T22:20:03.682Z,1.00
2018-07-28T22:22:30.818Z,2.20
2018-07-28T22:24:57.966Z,1.70
2018-07-28T22:27:25.109Z,1.40
2018-07-28T22:29:52.296Z,1.30
2018-07-28T22:32:19.435Z,1.50
2018-07-28T22:34:46.586Z,1.50
2018-07-28T22:37:13.729Z,1.50
2018-07-28T22:39:40.910Z,0.90
2018-07-28T22:42:08.368Z,1.30
2018-07-28T22:44:35.503Z,1.50
2018-07-28T22:47:02.685Z,1.27
2018-07-28T22:49:29.829Z,1.30
2018-07-28T22:51:56.985Z,1.20
2018-07-28T22:54:24.114Z,1.53
2018-07-28T22:56:51.739Z,1.67
2018-07-28T22:59:18.933Z,1.30
2018-07-28T23:01:46.148Z,1.27
2018-07-28T23:04:13.837Z,1.35
2018-07-28T23:06:40.967Z,1.35
2018-07-28T23:09:09.213Z,1.83
2018-07-28T23:11:36.655Z,1.40
2018-07-28T23:14:03.785Z,1.33
2018-07-28T23:16:30.932Z,1.30
2018-07-28T23:18:58.078Z,1.30
2018-07-28T23:21:25.641Z,1.27
2018-07-28T23:23:52.777Z,1.70
2018-07-28T23:26:19.910Z,2.03
2018-07-28T23:28:47.113Z,1.33
2018-07-28T23:31:14.245Z,2.37
2018-07-28T23:33:41.379Z,1.73
2018-07-28T23:36:08.877Z,1.70
2018-07-28T23:38:36.005Z,1.20
2018-07-28T23:41:03.165Z,1.33
2018-07-28T23:43:30.317Z,1.27
